sensor_id;sensor_type;location;lat;lon;timestamp;P1;durP1;ratioP1;P2;durP2;ratioP2
27422;SDS011;14878;50.778;0.258;2022-08-19T00:00:52;17.43;;;5.63;;
27422;SDS011;14878;50.778;0.258;2022-08-19T00:01:53;15.52;;;5.80;;
27422;SDS011;14878;50.778;0.258;2022-08-19T00:02:56;14.27;;;5.00;;
27422;SDS011;14878;50.778;0.258;2022-08-19T00:03:57;15.60;;;5.70;;
27422;SDS011;14878;50.778;0.258;2022-08-19T00:04:59;13.25;;;5.28;;
27422;SDS011;14878;50.778;0.258;2022-08-19T00:06:00;14.97;;;5.40;;
27422;SDS011;14878;50.778;0.258;2022-08-19T00:07:01;15.55;;;5.13;;
27422;SDS011;14878;50.778;0.258;2022-08-19T00:08:04;11.93;;;4.90;;
27422;SDS011;14878;50.778;0.258;2022-08-19T00:09:06;15.45;;;5.22;;
27422;SDS011;14878;50.778;0.258;2022-08-19T00:10:09;12.13;;;5.10;;
27422;SDS011;14878;50.778;0.258;2022-08-19T00:11:11;13.18;;;4.78;;
27422;SDS011;14878;50.778;0.258;2022-08-19T00:12:12;15.02;;;5.00;;
27422;SDS011;14878;50.778;0.258;2022-08-19T00:13:14;15.43;;;4.70;;
27422;SDS011;14878;50.778;0.258;2022-08-19T00:14:16;11.85;;;4.63;;
27422;SDS011;14878;50.778;0.258;2022-08-19T00:15:18;12.77;;;5.45;;
27422;SDS011;14878;50.778;0.258;2022-08-19T00:16:20;12.70;;;5.07;;
27422;SDS011;14878;50.778;0.258;2022-08-19T00:17:21;11.85;;;4.75;;
27422;SDS011;14878;50.778;0.258;2022-08-19T00:18:22;10.37;;;4.10;;
27422;SDS011;14878;50.778;0.258;2022-08-19T00:19:23;10.38;;;4.20;;
27422;SDS011;14878;50.778;0.258;2022-08-19T00:20:24;10.23;;;4.37;;
27422;SDS011;14878;50.778;0.258;2022-08-19T00:21:26;10.13;;;3.85;;
27422;SDS011;14878;50.778;0.258;2022-08-19T00:22:27;12.27;;;4.20;;
27422;SDS011;14878;50.778;0.258;2022-08-19T00:23:28;12.82;;;4.10;;
27422;SDS011;14878;50.778;0.258;2022-08-19T00:24:30;9.57;;;4.55;;
27422;SDS011;14878;50.778;0.258;2022-08-19T00:25:32;8.73;;;4.43;;
27422;SDS011;14878;50.778;0.258;2022-08-19T00:26:33;9.23;;;3.97;;
27422;SDS011;14878;50.778;0.258;2022-08-19T00:27:35;8.98;;;3.78;;
27422;SDS011;14878;50.778;0.258;2022-08-19T00:28:36;11.23;;;3.67;;
27422;SDS011;14878;50.778;0.258;2022-08-19T00:29:38;10.35;;;4.00;;
27422;SDS011;14878;50.778;0.258;2022-08-19T00:30:38;11.13;;;4.07;;
27422;SDS011;14878;50.778;0.258;2022-08-19T00:31:40;11.25;;;4.65;;
27422;SDS011;14878;50.778;0.258;2022-08-19T00:32:43;10.77;;;4.68;;
27422;SDS011;14878;50.778;0.258;2022-08-19T00:33:44;12.07;;;4.72;;
27422;SDS011;14878;50.778;0.258;2022-08-19T00:34:45;16.05;;;4.38;;
27422;SDS011;14878;50.778;0.258;2022-08-19T00:35:46;12.13;;;4.35;;
27422;SDS011;14878;50.778;0.258;2022-08-19T00:36:47;11.93;;;3.85;;
27422;SDS011;14878;50.778;0.258;2022-08-19T00:37:48;10.10;;;3.72;;
27422;SDS011;14878;50.778;0.258;2022-08-19T00:38:50;7.72;;;3.50;;
27422;SDS011;14878;50.778;0.258;2022-08-19T00:39:53;7.85;;;3.55;;
27422;SDS011;14878;50.778;0.258;2022-08-19T00:40:54;7.13;;;3.63;;
27422;SDS011;14878;50.778;0.258;2022-08-19T00:41:55;9.80;;;3.60;;
27422;SDS011;14878;50.778;0.258;2022-08-19T00:42:57;7.40;;;3.47;;
27422;SDS011;14878;50.778;0.258;2022-08-19T00:45:02;8.25;;;3.90;;
27422;SDS011;14878;50.778;0.258;2022-08-19T00:46:08;8.18;;;3.80;;
27422;SDS011;14878;50.778;0.258;2022-08-19T00:47:09;10.70;;;4.40;;
27422;SDS011;14878;50.778;0.258;2022-08-19T00:48:11;7.43;;;3.40;;
27422;SDS011;14878;50.778;0.258;2022-08-19T00:50:22;9.98;;;3.60;;
27422;SDS011;14878;50.778;0.258;2022-08-19T00:51:24;6.65;;;3.50;;
27422;SDS011;14878;50.778;0.258;2022-08-19T00:52:29;8.60;;;3.28;;
27422;SDS011;14878;50.778;0.258;2022-08-19T00:53:33;8.52;;;3.70;;
27422;SDS011;14878;50.778;0.258;2022-08-19T00:54:35;7.82;;;3.83;;
27422;SDS011;14878;50.778;0.258;2022-08-19T00:55:37;11.73;;;4.22;;
27422;SDS011;14878;50.778;0.258;2022-08-19T00:56:39;8.98;;;3.60;;
27422;SDS011;14878;50.778;0.258;2022-08-19T00:57:42;9.10;;;4.10;;
27422;SDS011;14878;50.778;0.258;2022-08-19T00:58:48;7.20;;;3.88;;
27422;SDS011;14878;50.778;0.258;2022-08-19T00:59:51;11.88;;;3.90;;
27422;SDS011;14878;50.778;0.258;2022-08-19T01:00:54;6.60;;;3.63;;
27422;SDS011;14878;50.778;0.258;2022-08-19T01:01:55;7.90;;;3.40;;
27422;SDS011;14878;50.778;0.258;2022-08-19T01:02:56;6.13;;;3.35;;
27422;SDS011;14878;50.778;0.258;2022-08-19T01:03:57;5.85;;;3.13;;
27422;SDS011;14878;50.778;0.258;2022-08-19T01:04:59;6.95;;;3.28;;
27422;SDS011;14878;50.778;0.258;2022-08-19T01:06:04;7.22;;;3.50;;
27422;SDS011;14878;50.778;0.258;2022-08-19T01:07:06;7.47;;;3.28;;
27422;SDS011;14878;50.778;0.258;2022-08-19T01:08:08;8.43;;;3.40;;
27422;SDS011;14878;50.778;0.258;2022-08-19T01:09:10;8.93;;;3.15;;
27422;SDS011;14878;50.778;0.258;2022-08-19T01:10:13;10.27;;;3.33;;
27422;SDS011;14878;50.778;0.258;2022-08-19T01:11:18;7.22;;;3.70;;
27422;SDS011;14878;50.778;0.258;2022-08-19T01:12:19;7.65;;;3.40;;
27422;SDS011;14878;50.778;0.258;2022-08-19T01:13:22;6.38;;;3.08;;
27422;SDS011;14878;50.778;0.258;2022-08-19T01:14:25;6.80;;;2.95;;
27422;SDS011;14878;50.778;0.258;2022-08-19T01:15:27;6.35;;;2.90;;
27422;SDS011;14878;50.778;0.258;2022-08-19T01:16:45;3.97;;;2.55;;
27422;SDS011;14878;50.778;0.258;2022-08-19T01:17:47;7.95;;;3.17;;
27422;SDS011;14878;50.778;0.258;2022-08-19T01:18:49;5.82;;;2.60;;
27422;SDS011;14878;50.778;0.258;2022-08-19T01:19:50;6.60;;;2.70;;
27422;SDS011;14878;50.778;0.258;2022-08-19T01:20:52;6.15;;;2.55;;
27422;SDS011;14878;50.778;0.258;2022-08-19T01:22:03;5.45;;;2.58;;
27422;SDS011;14878;50.778;0.258;2022-08-19T01:23:12;6.28;;;2.83;;
27422;SDS011;14878;50.778;0.258;2022-08-19T01:24:13;7.40;;;3.03;;
27422;SDS011;14878;50.778;0.258;2022-08-19T01:25:15;7.03;;;2.87;;
27422;SDS011;14878;50.778;0.258;2022-08-19T01:26:19;7.00;;;2.97;;
27422;SDS011;14878;50.778;0.258;2022-08-19T01:27:22;6.85;;;3.42;;
27422;SDS011;14878;50.778;0.258;2022-08-19T01:28:24;9.63;;;3.20;;
27422;SDS011;14878;50.778;0.258;2022-08-19T01:29:27;8.00;;;3.20;;
27422;SDS011;14878;50.778;0.258;2022-08-19T01:30:30;6.05;;;2.80;;
27422;SDS011;14878;50.778;0.258;2022-08-19T01:31:33;8.70;;;3.35;;
27422;SDS011;14878;50.778;0.258;2022-08-19T01:32:35;6.28;;;3.15;;
27422;SDS011;14878;50.778;0.258;2022-08-19T01:33:36;8.75;;;3.50;;
27422;SDS011;14878;50.778;0.258;2022-08-19T01:34:37;4.63;;;2.47;;
27422;SDS011;14878;50.778;0.258;2022-08-19T01:35:38;6.25;;;2.60;;
27422;SDS011;14878;50.778;0.258;2022-08-19T01:36:43;5.47;;;2.58;;
27422;SDS011;14878;50.778;0.258;2022-08-19T01:37:48;7.13;;;2.83;;
27422;SDS011;14878;50.778;0.258;2022-08-19T01:38:49;6.28;;;2.63;;
27422;SDS011;14878;50.778;0.258;2022-08-19T01:39:50;6.93;;;2.50;;
27422;SDS011;14878;50.778;0.258;2022-08-19T01:40:51;7.70;;;2.50;;
27422;SDS011;14878;50.778;0.258;2022-08-19T01:41:52;4.15;;;2.42;;
27422;SDS011;14878;50.778;0.258;2022-08-19T01:42:55;7.18;;;2.75;;
27422;SDS011;14878;50.778;0.258;2022-08-19T01:43:55;6.05;;;3.10;;
27422;SDS011;14878;50.778;0.258;2022-08-19T01:44:56;10.52;;;3.60;;
27422;SDS011;14878;50.778;0.258;2022-08-19T01:45:57;7.33;;;3.43;;
27422;SDS011;14878;50.778;0.258;2022-08-19T01:46:58;5.07;;;3.10;;
27422;SDS011;14878;50.778;0.258;2022-08-19T01:47:59;7.30;;;3.33;;
27422;SDS011;14878;50.778;0.258;2022-08-19T01:49:01;5.88;;;3.35;;
27422;SDS011;14878;50.778;0.258;2022-08-19T01:50:05;5.13;;;3.20;;
27422;SDS011;14878;50.778;0.258;2022-08-19T01:51:08;8.00;;;3.10;;
27422;SDS011;14878;50.778;0.258;2022-08-19T01:52:10;8.18;;;3.00;;
27422;SDS011;14878;50.778;0.258;2022-08-19T01:53:11;5.95;;;3.00;;
27422;SDS011;14878;50.778;0.258;2022-08-19T01:54:13;6.63;;;3.17;;
27422;SDS011;14878;50.778;0.258;2022-08-19T01:55:16;7.63;;;2.83;;
27422;SDS011;14878;50.778;0.258;2022-08-19T01:56:19;8.82;;;3.85;;
27422;SDS011;14878;50.778;0.258;2022-08-19T01:57:20;10.73;;;3.42;;
27422;SDS011;14878;50.778;0.258;2022-08-19T01:58:22;10.10;;;3.43;;
27422;SDS011;14878;50.778;0.258;2022-08-19T01:59:28;10.98;;;3.55;;
27422;SDS011;14878;50.778;0.258;2022-08-19T02:00:30;10.32;;;3.75;;
27422;SDS011;14878;50.778;0.258;2022-08-19T02:01:32;10.98;;;4.00;;
27422;SDS011;14878;50.778;0.258;2022-08-19T02:02:34;12.52;;;3.65;;
27422;SDS011;14878;50.778;0.258;2022-08-19T02:03:35;15.10;;;4.30;;
27422;SDS011;14878;50.778;0.258;2022-08-19T02:04:36;9.93;;;3.95;;
27422;SDS011;14878;50.778;0.258;2022-08-19T02:05:38;8.75;;;3.25;;
27422;SDS011;14878;50.778;0.258;2022-08-19T02:06:40;6.63;;;3.13;;
27422;SDS011;14878;50.778;0.258;2022-08-19T02:07:41;6.40;;;3.17;;
27422;SDS011;14878;50.778;0.258;2022-08-19T02:08:42;8.57;;;3.25;;
27422;SDS011;14878;50.778;0.258;2022-08-19T02:09:46;8.38;;;3.40;;
27422;SDS011;14878;50.778;0.258;2022-08-19T02:10:47;8.98;;;3.97;;
27422;SDS011;14878;50.778;0.258;2022-08-19T02:11:48;7.32;;;3.45;;
27422;SDS011;14878;50.778;0.258;2022-08-19T02:12:49;8.15;;;3.38;;
27422;SDS011;14878;50.778;0.258;2022-08-19T02:13:50;10.40;;;4.10;;
27422;SDS011;14878;50.778;0.258;2022-08-19T02:14:51;9.45;;;4.10;;
27422;SDS011;14878;50.778;0.258;2022-08-19T02:15:52;10.43;;;3.92;;
27422;SDS011;14878;50.778;0.258;2022-08-19T02:16:53;11.48;;;4.32;;
27422;SDS011;14878;50.778;0.258;2022-08-19T02:17:53;11.77;;;4.53;;
27422;SDS011;14878;50.778;0.258;2022-08-19T02:18:54;9.98;;;4.53;;
27422;SDS011;14878;50.778;0.258;2022-08-19T02:19:55;14.63;;;4.90;;
27422;SDS011;14878;50.778;0.258;2022-08-19T02:20:56;18.02;;;5.10;;
27422;SDS011;14878;50.778;0.258;2022-08-19T02:21:57;15.75;;;5.00;;
27422;SDS011;14878;50.778;0.258;2022-08-19T02:22:58;15.95;;;5.03;;
27422;SDS011;14878;50.778;0.258;2022-08-19T02:24:01;15.32;;;5.40;;
27422;SDS011;14878;50.778;0.258;2022-08-19T02:25:02;14.57;;;4.95;;
27422;SDS011;14878;50.778;0.258;2022-08-19T02:26:05;17.48;;;5.28;;
27422;SDS011;14878;50.778;0.258;2022-08-19T02:27:06;15.68;;;5.70;;
27422;SDS011;14878;50.778;0.258;2022-08-19T02:28:07;13.07;;;5.03;;
27422;SDS011;14878;50.778;0.258;2022-08-19T02:29:08;17.15;;;5.47;;
27422;SDS011;14878;50.778;0.258;2022-08-19T02:30:11;14.90;;;5.43;;
27422;SDS011;14878;50.778;0.258;2022-08-19T02:31:16;17.55;;;5.65;;
27422;SDS011;14878;50.778;0.258;2022-08-19T02:32:20;14.73;;;5.78;;
27422;SDS011;14878;50.778;0.258;2022-08-19T02:33:21;18.05;;;6.10;;
27422;SDS011;14878;50.778;0.258;2022-08-19T02:34:22;18.33;;;5.80;;
27422;SDS011;14878;50.778;0.258;2022-08-19T02:35:25;14.68;;;5.63;;
27422;SDS011;14878;50.778;0.258;2022-08-19T02:36:26;17.65;;;5.95;;
27422;SDS011;14878;50.778;0.258;2022-08-19T02:37:27;14.48;;;5.78;;
27422;SDS011;14878;50.778;0.258;2022-08-19T02:38:52;16.00;;;6.43;;
27422;SDS011;14878;50.778;0.258;2022-08-19T02:39:54;15.77;;;6.35;;
27422;SDS011;14878;50.778;0.258;2022-08-19T02:40:56;17.55;;;6.50;;
27422;SDS011;14878;50.778;0.258;2022-08-19T02:41:59;17.48;;;7.50;;
27422;SDS011;14878;50.778;0.258;2022-08-19T02:43:02;24.63;;;7.40;;
27422;SDS011;14878;50.778;0.258;2022-08-19T02:44:08;21.88;;;7.38;;
27422;SDS011;14878;50.778;0.258;2022-08-19T02:45:09;25.13;;;7.50;;
27422;SDS011;14878;50.778;0.258;2022-08-19T02:46:11;19.92;;;7.25;;
27422;SDS011;14878;50.778;0.258;2022-08-19T02:47:18;17.17;;;6.72;;
27422;SDS011;14878;50.778;0.258;2022-08-19T02:48:20;18.35;;;7.03;;
27422;SDS011;14878;50.778;0.258;2022-08-19T02:49:22;17.90;;;6.90;;
27422;SDS011;14878;50.778;0.258;2022-08-19T02:50:22;18.27;;;6.97;;
27422;SDS011;14878;50.778;0.258;2022-08-19T02:51:28;23.70;;;6.55;;
27422;SDS011;14878;50.778;0.258;2022-08-19T02:52:31;24.45;;;8.00;;
27422;SDS011;14878;50.778;0.258;2022-08-19T02:53:33;21.20;;;7.43;;
27422;SDS011;14878;50.778;0.258;2022-08-19T02:54:34;23.17;;;7.78;;
27422;SDS011;14878;50.778;0.258;2022-08-19T02:55:35;20.73;;;7.57;;
27422;SDS011;14878;50.778;0.258;2022-08-19T02:56:37;18.40;;;6.90;;
27422;SDS011;14878;50.778;0.258;2022-08-19T02:57:40;24.02;;;7.03;;
27422;SDS011;14878;50.778;0.258;2022-08-19T02:58:41;17.95;;;7.18;;
27422;SDS011;14878;50.778;0.258;2022-08-19T02:59:43;19.75;;;7.20;;
27422;SDS011;14878;50.778;0.258;2022-08-19T03:00:44;21.27;;;7.27;;
27422;SDS011;14878;50.778;0.258;2022-08-19T03:01:47;20.77;;;7.53;;
27422;SDS011;14878;50.778;0.258;2022-08-19T03:02:47;20.92;;;6.85;;
27422;SDS011;14878;50.778;0.258;2022-08-19T03:03:49;18.02;;;6.10;;
27422;SDS011;14878;50.778;0.258;2022-08-19T03:04:50;19.25;;;6.10;;
27422;SDS011;14878;50.778;0.258;2022-08-19T03:05:51;20.13;;;6.18;;
27422;SDS011;14878;50.778;0.258;2022-08-19T03:07:02;20.55;;;6.93;;
27422;SDS011;14878;50.778;0.258;2022-08-19T03:08:03;21.13;;;6.85;;
27422;SDS011;14878;50.778;0.258;2022-08-19T03:09:05;19.25;;;7.35;;
27422;SDS011;14878;50.778;0.258;2022-08-19T03:10:06;18.83;;;7.27;;
27422;SDS011;14878;50.778;0.258;2022-08-19T03:11:19;19.98;;;7.30;;
27422;SDS011;14878;50.778;0.258;2022-08-19T03:12:27;23.98;;;7.60;;
27422;SDS011;14878;50.778;0.258;2022-08-19T03:13:28;23.37;;;7.43;;
27422;SDS011;14878;50.778;0.258;2022-08-19T03:14:32;25.40;;;7.80;;
27422;SDS011;14878;50.778;0.258;2022-08-19T03:15:34;22.60;;;6.90;;
27422;SDS011;14878;50.778;0.258;2022-08-19T03:16:39;18.07;;;6.27;;
27422;SDS011;14878;50.778;0.258;2022-08-19T03:17:45;17.77;;;5.47;;
27422;SDS011;14878;50.778;0.258;2022-08-19T03:18:46;17.45;;;5.22;;
27422;SDS011;14878;50.778;0.258;2022-08-19T03:19:47;14.73;;;5.13;;
27422;SDS011;14878;50.778;0.258;2022-08-19T03:20:49;19.50;;;5.73;;
27422;SDS011;14878;50.778;0.258;2022-08-19T03:21:53;14.95;;;5.22;;
27422;SDS011;14878;50.778;0.258;2022-08-19T03:22:55;16.15;;;5.03;;
27422;SDS011;14878;50.778;0.258;2022-08-19T03:23:56;19.58;;;5.47;;
27422;SDS011;14878;50.778;0.258;2022-08-19T03:24:58;21.77;;;6.20;;
27422;SDS011;14878;50.778;0.258;2022-08-19T03:26:02;17.38;;;6.05;;
27422;SDS011;14878;50.778;0.258;2022-08-19T03:27:04;15.52;;;5.70;;
27422;SDS011;14878;50.778;0.258;2022-08-19T03:28:05;18.67;;;6.88;;
27422;SDS011;14878;50.778;0.258;2022-08-19T03:29:07;17.05;;;5.60;;
27422;SDS011;14878;50.778;0.258;2022-08-19T03:30:10;21.33;;;6.13;;
27422;SDS011;14878;50.778;0.258;2022-08-19T03:31:12;21.73;;;6.10;;
27422;SDS011;14878;50.778;0.258;2022-08-19T03:32:14;17.87;;;5.60;;
27422;SDS011;14878;50.778;0.258;2022-08-19T03:33:15;15.85;;;5.93;;
27422;SDS011;14878;50.778;0.258;2022-08-19T03:34:17;16.73;;;5.90;;
27422;SDS011;14878;50.778;0.258;2022-08-19T03:35:21;19.95;;;6.43;;
27422;SDS011;14878;50.778;0.258;2022-08-19T03:36:23;22.23;;;6.80;;
27422;SDS011;14878;50.778;0.258;2022-08-19T03:37:25;21.15;;;6.85;;
27422;SDS011;14878;50.778;0.258;2022-08-19T03:38:26;21.95;;;6.57;;
27422;SDS011;14878;50.778;0.258;2022-08-19T03:39:27;25.77;;;6.78;;
27422;SDS011;14878;50.778;0.258;2022-08-19T03:40:28;19.85;;;7.80;;
27422;SDS011;14878;50.778;0.258;2022-08-19T03:41:31;23.63;;;7.60;;
27422;SDS011;14878;50.778;0.258;2022-08-19T03:42:36;20.67;;;6.82;;
27422;SDS011;14878;50.778;0.258;2022-08-19T03:43:37;20.15;;;7.00;;
27422;SDS011;14878;50.778;0.258;2022-08-19T03:44:39;23.05;;;7.07;;
27422;SDS011;14878;50.778;0.258;2022-08-19T03:45:42;19.75;;;6.72;;
27422;SDS011;14878;50.778;0.258;2022-08-19T03:46:43;25.00;;;7.68;;
27422;SDS011;14878;50.778;0.258;2022-08-19T03:47:44;23.35;;;7.18;;
27422;SDS011;14878;50.778;0.258;2022-08-19T03:48:45;27.25;;;7.07;;
27422;SDS011;14878;50.778;0.258;2022-08-19T03:49:49;19.73;;;6.15;;
27422;SDS011;14878;50.778;0.258;2022-08-19T03:50:50;27.10;;;7.35;;
27422;SDS011;14878;50.778;0.258;2022-08-19T03:51:50;24.48;;;7.40;;
27422;SDS011;14878;50.778;0.258;2022-08-19T03:52:51;21.53;;;6.37;;
27422;SDS011;14878;50.778;0.258;2022-08-19T03:53:53;22.58;;;6.85;;
27422;SDS011;14878;50.778;0.258;2022-08-19T03:54:54;26.33;;;7.10;;
27422;SDS011;14878;50.778;0.258;2022-08-19T03:55:56;20.83;;;7.22;;
27422;SDS011;14878;50.778;0.258;2022-08-19T03:56:59;27.48;;;7.32;;
27422;SDS011;14878;50.778;0.258;2022-08-19T03:58:00;26.55;;;7.40;;
27422;SDS011;14878;50.778;0.258;2022-08-19T03:59:01;23.80;;;6.90;;
27422;SDS011;14878;50.778;0.258;2022-08-19T04:00:03;23.77;;;7.32;;
27422;SDS011;14878;50.778;0.258;2022-08-19T04:01:07;20.63;;;6.93;;
27422;SDS011;14878;50.778;0.258;2022-08-19T04:02:10;24.77;;;7.50;;
27422;SDS011;14878;50.778;0.258;2022-08-19T04:03:12;22.60;;;7.03;;
27422;SDS011;14878;50.778;0.258;2022-08-19T04:04:13;24.20;;;6.65;;
27422;SDS011;14878;50.778;0.258;2022-08-19T04:05:14;24.55;;;7.30;;
27422;SDS011;14878;50.778;0.258;2022-08-19T04:06:19;15.45;;;6.40;;
27422;SDS011;14878;50.778;0.258;2022-08-19T04:07:22;24.00;;;6.30;;
27422;SDS011;14878;50.778;0.258;2022-08-19T04:08:23;18.10;;;6.72;;
27422;SDS011;14878;50.778;0.258;2022-08-19T04:09:24;17.43;;;6.33;;
27422;SDS011;14878;50.778;0.258;2022-08-19T04:10:26;18.60;;;6.53;;
27422;SDS011;14878;50.778;0.258;2022-08-19T04:11:29;23.33;;;7.00;;
27422;SDS011;14878;50.778;0.258;2022-08-19T04:12:33;24.17;;;7.00;;
27422;SDS011;14878;50.778;0.258;2022-08-19T04:13:34;21.27;;;7.13;;
27422;SDS011;14878;50.778;0.258;2022-08-19T04:14:35;20.38;;;7.00;;
27422;SDS011;14878;50.778;0.258;2022-08-19T04:15:39;27.40;;;7.43;;
27422;SDS011;14878;50.778;0.258;2022-08-19T04:16:41;27.50;;;7.78;;
27422;SDS011;14878;50.778;0.258;2022-08-19T04:17:44;26.92;;;7.60;;
27422;SDS011;14878;50.778;0.258;2022-08-19T04:18:45;25.65;;;8.40;;
27422;SDS011;14878;50.778;0.258;2022-08-19T04:19:46;21.70;;;7.50;;
27422;SDS011;14878;50.778;0.258;2022-08-19T04:20:47;22.85;;;7.80;;
27422;SDS011;14878;50.778;0.258;2022-08-19T04:21:50;26.55;;;7.93;;
27422;SDS011;14878;50.778;0.258;2022-08-19T04:22:52;22.67;;;8.20;;
27422;SDS011;14878;50.778;0.258;2022-08-19T04:23:53;25.95;;;8.10;;
27422;SDS011;14878;50.778;0.258;2022-08-19T04:24:55;23.65;;;8.02;;
27422;SDS011;14878;50.778;0.258;2022-08-19T04:25:56;24.23;;;7.63;;
27422;SDS011;14878;50.778;0.258;2022-08-19T04:26:58;29.05;;;8.25;;
27422;SDS011;14878;50.778;0.258;2022-08-19T04:28:00;22.95;;;7.80;;
27422;SDS011;14878;50.778;0.258;2022-08-19T04:29:01;23.80;;;7.93;;
27422;SDS011;14878;50.778;0.258;2022-08-19T04:30:05;22.50;;;7.78;;
27422;SDS011;14878;50.778;0.258;2022-08-19T04:31:11;25.70;;;7.70;;
27422;SDS011;14878;50.778;0.258;2022-08-19T04:32:16;29.33;;;7.75;;
27422;SDS011;14878;50.778;0.258;2022-08-19T04:33:18;25.40;;;7.73;;
27422;SDS011;14878;50.778;0.258;2022-08-19T04:34:21;23.23;;;7.00;;
27422;SDS011;14878;50.778;0.258;2022-08-19T04:35:24;24.30;;;6.72;;
27422;SDS011;14878;50.778;0.258;2022-08-19T04:36:26;22.13;;;6.57;;
27422;SDS011;14878;50.778;0.258;2022-08-19T04:37:30;25.20;;;7.03;;
27422;SDS011;14878;50.778;0.258;2022-08-19T04:38:33;23.55;;;7.03;;
27422;SDS011;14878;50.778;0.258;2022-08-19T04:39:34;25.00;;;7.25;;
27422;SDS011;14878;50.778;0.258;2022-08-19T04:40:53;22.00;;;6.63;;
27422;SDS011;14878;50.778;0.258;2022-08-19T04:42:13;26.58;;;7.78;;
27422;SDS011;14878;50.778;0.258;2022-08-19T04:43:34;21.05;;;6.47;;
27422;SDS011;14878;50.778;0.258;2022-08-19T04:44:37;31.30;;;7.07;;
27422;SDS011;14878;50.778;0.258;2022-08-19T04:45:38;17.17;;;6.40;;
27422;SDS011;14878;50.778;0.258;2022-08-19T04:46:39;20.45;;;6.68;;
27422;SDS011;14878;50.778;0.258;2022-08-19T04:47:41;22.20;;;6.88;;
27422;SDS011;14878;50.778;0.258;2022-08-19T04:48:44;18.88;;;5.97;;
27422;SDS011;14878;50.778;0.258;2022-08-19T04:49:45;16.33;;;6.30;;
27422;SDS011;14878;50.778;0.258;2022-08-19T04:50:46;18.65;;;6.85;;
27422;SDS011;14878;50.778;0.258;2022-08-19T04:51:48;22.00;;;6.45;;
27422;SDS011;14878;50.778;0.258;2022-08-19T04:52:51;20.73;;;6.38;;
27422;SDS011;14878;50.778;0.258;2022-08-19T04:53:52;16.48;;;6.22;;
27422;SDS011;14878;50.778;0.258;2022-08-19T04:54:53;19.98;;;7.32;;
27422;SDS011;14878;50.778;0.258;2022-08-19T04:55:55;19.10;;;7.22;;
27422;SDS011;14878;50.778;0.258;2022-08-19T04:56:57;23.38;;;7.90;;
27422;SDS011;14878;50.778;0.258;2022-08-19T04:57:58;22.63;;;8.23;;
27422;SDS011;14878;50.778;0.258;2022-08-19T04:58:59;26.20;;;8.90;;
27422;SDS011;14878;50.778;0.258;2022-08-19T05:00:04;26.27;;;8.90;;
27422;SDS011;14878;50.778;0.258;2022-08-19T05:01:06;24.77;;;9.25;;
27422;SDS011;14878;50.778;0.258;2022-08-19T05:02:09;28.83;;;9.80;;
27422;SDS011;14878;50.778;0.258;2022-08-19T05:03:10;36.20;;;10.50;;
27422;SDS011;14878;50.778;0.258;2022-08-19T05:04:11;34.50;;;11.05;;
27422;SDS011;14878;50.778;0.258;2022-08-19T05:05:13;29.58;;;10.43;;
27422;SDS011;14878;50.778;0.258;2022-08-19T05:06:14;36.15;;;11.25;;
27422;SDS011;14878;50.778;0.258;2022-08-19T05:07:17;42.22;;;11.23;;
27422;SDS011;14878;50.778;0.258;2022-08-19T05:08:19;43.75;;;11.73;;
27422;SDS011;14878;50.778;0.258;2022-08-19T05:09:22;43.22;;;11.70;;
27422;SDS011;14878;50.778;0.258;2022-08-19T05:10:22;41.83;;;12.65;;
27422;SDS011;14878;50.778;0.258;2022-08-19T05:11:27;39.37;;;12.53;;
27422;SDS011;14878;50.778;0.258;2022-08-19T05:12:33;40.50;;;12.27;;
27422;SDS011;14878;50.778;0.258;2022-08-19T05:13:34;43.80;;;12.23;;
27422;SDS011;14878;50.778;0.258;2022-08-19T05:14:35;51.30;;;12.77;;
27422;SDS011;14878;50.778;0.258;2022-08-19T05:15:36;42.30;;;11.65;;
27422;SDS011;14878;50.778;0.258;2022-08-19T05:16:37;42.30;;;11.60;;
27422;SDS011;14878;50.778;0.258;2022-08-19T05:17:38;37.88;;;11.05;;
27422;SDS011;14878;50.778;0.258;2022-08-19T05:18:59;35.60;;;11.30;;
27422;SDS011;14878;50.778;0.258;2022-08-19T05:20:19;42.43;;;11.37;;
27422;SDS011;14878;50.778;0.258;2022-08-19T05:21:39;41.55;;;10.77;;
27422;SDS011;14878;50.778;0.258;2022-08-19T05:22:59;40.95;;;10.88;;
27422;SDS011;14878;50.778;0.258;2022-08-19T05:24:00;34.10;;;9.77;;
27422;SDS011;14878;50.778;0.258;2022-08-19T05:25:03;41.00;;;10.10;;
27422;SDS011;14878;50.778;0.258;2022-08-19T05:26:06;40.00;;;9.93;;
27422;SDS011;14878;50.778;0.258;2022-08-19T05:27:09;36.03;;;8.73;;
27422;SDS011;14878;50.778;0.258;2022-08-19T05:28:10;35.95;;;9.15;;
27422;SDS011;14878;50.778;0.258;2022-08-19T05:29:10;36.07;;;9.60;;
27422;SDS011;14878;50.778;0.258;2022-08-19T05:30:12;33.03;;;9.50;;
27422;SDS011;14878;50.778;0.258;2022-08-19T05:31:13;36.40;;;9.60;;
27422;SDS011;14878;50.778;0.258;2022-08-19T05:32:14;33.63;;;8.17;;
27422;SDS011;14878;50.778;0.258;2022-08-19T05:33:14;30.65;;;9.18;;
27422;SDS011;14878;50.778;0.258;2022-08-19T05:34:19;39.50;;;9.57;;
27422;SDS011;14878;50.778;0.258;2022-08-19T05:35:22;38.88;;;9.38;;
27422;SDS011;14878;50.778;0.258;2022-08-19T05:36:25;36.88;;;8.13;;
27422;SDS011;14878;50.778;0.258;2022-08-19T05:37:27;37.97;;;8.75;;
27422;SDS011;14878;50.778;0.258;2022-08-19T05:38:28;28.42;;;8.13;;
27422;SDS011;14878;50.778;0.258;2022-08-19T05:39:30;33.95;;;8.02;;
27422;SDS011;14878;50.778;0.258;2022-08-19T05:40:36;28.80;;;8.32;;
27422;SDS011;14878;50.778;0.258;2022-08-19T05:41:42;32.83;;;7.85;;
27422;SDS011;14878;50.778;0.258;2022-08-19T05:42:43;36.67;;;8.30;;
27422;SDS011;14878;50.778;0.258;2022-08-19T05:43:45;36.53;;;9.30;;
27422;SDS011;14878;50.778;0.258;2022-08-19T05:44:45;33.95;;;7.97;;
27422;SDS011;14878;50.778;0.258;2022-08-19T05:45:49;28.63;;;7.38;;
27422;SDS011;14878;50.778;0.258;2022-08-19T05:46:51;31.75;;;7.30;;
27422;SDS011;14878;50.778;0.258;2022-08-19T05:47:55;34.78;;;7.05;;
27422;SDS011;14878;50.778;0.258;2022-08-19T05:48:55;29.20;;;7.05;;
27422;SDS011;14878;50.778;0.258;2022-08-19T05:49:56;36.40;;;7.67;;
27422;SDS011;14878;50.778;0.258;2022-08-19T05:50:57;31.45;;;7.00;;
27422;SDS011;14878;50.778;0.258;2022-08-19T05:52:01;25.23;;;6.75;;
27422;SDS011;14878;50.778;0.258;2022-08-19T05:53:04;29.92;;;6.85;;
27422;SDS011;14878;50.778;0.258;2022-08-19T05:54:05;28.42;;;6.97;;
27422;SDS011;14878;50.778;0.258;2022-08-19T05:55:08;32.03;;;7.15;;
27422;SDS011;14878;50.778;0.258;2022-08-19T05:56:11;30.13;;;7.00;;
27422;SDS011;14878;50.778;0.258;2022-08-19T05:57:15;30.08;;;7.30;;
27422;SDS011;14878;50.778;0.258;2022-08-19T05:58:17;25.27;;;6.60;;
27422;SDS011;14878;50.778;0.258;2022-08-19T05:59:18;32.38;;;7.05;;
27422;SDS011;14878;50.778;0.258;2022-08-19T06:00:21;30.50;;;7.80;;
27422;SDS011;14878;50.778;0.258;2022-08-19T06:01:22;27.25;;;6.57;;
27422;SDS011;14878;50.778;0.258;2022-08-19T06:02:25;28.50;;;7.15;;
27422;SDS011;14878;50.778;0.258;2022-08-19T06:03:26;28.20;;;6.97;;
27422;SDS011;14878;50.778;0.258;2022-08-19T06:04:28;29.85;;;7.55;;
27422;SDS011;14878;50.778;0.258;2022-08-19T06:05:29;29.27;;;6.83;;
27422;SDS011;14878;50.778;0.258;2022-08-19T06:06:30;21.30;;;6.35;;
27422;SDS011;14878;50.778;0.258;2022-08-19T06:07:37;28.95;;;6.88;;
27422;SDS011;14878;50.778;0.258;2022-08-19T06:08:39;27.23;;;7.07;;
27422;SDS011;14878;50.778;0.258;2022-08-19T06:09:40;31.30;;;6.72;;
27422;SDS011;14878;50.778;0.258;2022-08-19T06:10:41;29.42;;;6.78;;
27422;SDS011;14878;50.778;0.258;2022-08-19T06:11:43;30.55;;;6.63;;
27422;SDS011;14878;50.778;0.258;2022-08-19T06:12:45;27.35;;;6.97;;
27422;SDS011;14878;50.778;0.258;2022-08-19T06:13:47;24.70;;;6.23;;
27422;SDS011;14878;50.778;0.258;2022-08-19T06:14:51;25.85;;;6.93;;